Time;durP1;ratioP1;P1;durP2;ratioP2;P2;SDS_P1;SDS_P2;PMS_P1;PMS_P2;Temp;Humidity;BMP_temperature;BMP_pressure;BME280_temperature;BME280_humidity;BME280_pressure;Samples;Min_cycle;Max_cycle;Signal;HPM_P1;HPM_P2
2022/03/09 00:01:59;;;;;;;11.63;7.18;;;3.60;99.90;;;;;;5073725;28;20174;-48
2022/03/09 00:04:25;;;;;;;10.68;7.00;;;3.50;99.90;;;;;;5073530;28;20176;-48
2022/03/09 00:06:50;;;;;;;11.45;7.00;;;3.50;99.90;;;;;;5073759;28;20580;-48
2022/03/09 00:09:16;;;;;;;10.10;6.88;;;3.50;99.90;;;;;;5073379;28;20193;-47
2022/03/09 00:11:41;;;;;;;10.27;6.50;;;3.50;99.90;;;;;;5055275;28;20230;-47
2022/03/09 00:14:07;;;;;;;13.63;6.45;;;3.50;99.90;;;;;;5073712;28;20197;-48
2022/03/09 00:16:33;;;;;;;10.95;6.47;;;3.40;99.90;;;;;;5073300;28;20204;-49
2022/03/09 00:18:58;;;;;;;9.55;5.88;;;3.40;99.90;;;;;;5073693;28;20188;-48
2022/03/09 00:21:24;;;;;;;12.30;6.78;;;3.50;99.90;;;;;;5073171;28;20504;-48
2022/03/09 00:23:49;;;;;;;11.55;6.35;;;3.50;99.90;;;;;;5073310;28;20502;-48
2022/03/09 00:26:15;;;;;;;12.55;6.65;;;3.40;99.90;;;;;;5055038;28;20173;-48
2022/03/09 00:28:41;;;;;;;9.38;6.68;;;3.30;99.90;;;;;;5073011;28;20193;-48
2022/03/09 00:31:06;;;;;;;14.38;7.10;;;3.30;99.90;;;;;;5073152;28;20204;-48
2022/03/09 00:33:33;;;;;;;9.10;6.20;;;3.30;99.90;;;;;;5073229;28;20177;-48
2022/03/09 00:35:58;;;;;;;15.35;6.47;;;3.20;99.90;;;;;;5072836;28;20158;-48
2022/03/09 00:38:24;;;;;;;9.60;5.47;;;3.20;99.90;;;;;;5073110;28;20254;-49
2022/03/09 00:40:50;;;;;;;16.27;7.10;;;3.10;99.90;;;;;;5072848;28;20228;-48
2022/03/09 00:43:16;;;;;;;9.27;5.85;;;3.10;99.90;;;;;;5073024;28;20170;-48
2022/03/09 00:45:42;;;;;;;12.77;6.28;;;3.10;99.90;;;;;;5072672;28;20620;-47
2022/03/09 00:48:07;;;;;;;9.15;5.75;;;3.20;99.90;;;;;;5072970;28;20569;-48
2022/03/09 00:50:33;;;;;;;10.48;5.72;;;3.10;99.90;;;;;;5072680;28;20180;-48
2022/03/09 00:52:58;;;;;;;8.40;5.40;;;3.30;99.90;;;;;;5072386;28;20232;-48
2022/03/09 00:55:24;;;;;;;12.55;6.80;;;3.20;99.90;;;;;;5072419;28;20658;-48
2022/03/09 00:57:50;;;;;;;8.77;5.28;;;3.20;99.90;;;;;;5072550;28;20170;-48
2022/03/09 01:00:16;;;;;;;12.35;6.25;;;3.10;99.90;;;;;;5072567;28;20185;-48
2022/03/09 01:02:43;;;;;;;11.90;6.70;;;3.10;99.90;;;;;;5072396;28;20170;-48
2022/03/09 01:05:10;;;;;;;11.93;6.10;;;3.00;99.90;;;;;;5072655;28;20635;-48
2022/03/09 01:07:36;;;;;;;9.77;6.30;;;3.00;99.90;;;;;;5072601;28;20222;-48
2022/03/09 01:10:02;;;;;;;8.95;6.00;;;3.00;99.90;;;;;;5072305;28;20220;-48
2022/03/09 01:12:28;;;;;;;12.40;6.50;;;3.00;99.90;;;;;;5072290;28;20211;-48
2022/03/09 01:14:53;;;;;;;13.90;6.47;;;3.00;99.90;;;;;;5072279;28;20527;-47
2022/03/09 01:17:19;;;;;;;9.15;5.95;;;3.00;99.90;;;;;;5072174;28;20170;-55
2022/03/09 01:19:44;;;;;;;11.45;6.07;;;3.00;99.90;;;;;;5072133;28;20205;-47
2022/03/09 01:22:10;;;;;;;9.88;6.35;;;2.90;99.90;;;;;;5072281;28;20212;-48
2022/03/09 01:24:35;;;;;;;7.90;5.55;;;2.90;99.90;;;;;;5072449;28;20166;-48
2022/03/09 01:27:01;;;;;;;10.18;6.07;;;2.90;99.90;;;;;;5072272;28;20166;-47
2022/03/09 01:29:27;;;;;;;11.23;6.13;;;2.80;99.90;;;;;;5072002;28;20174;-48
2022/03/09 01:31:52;;;;;;;13.07;6.43;;;2.80;99.90;;;;;;5054002;28;20218;-48
2022/03/09 01:34:18;;;;;;;11.50;6.80;;;2.80;99.90;;;;;;5071911;28;20177;-47
2022/03/09 01:36:43;;;;;;;11.45;6.80;;;2.70;99.90;;;;;;5071454;28;20185;-48
2022/03/09 01:39:09;;;;;;;12.43;6.22;;;2.70;99.90;;;;;;5072217;28;20198;-48
2022/03/09 01:41:34;;;;;;;14.48;6.53;;;2.80;99.90;;;;;;5072226;28;20178;-48
2022/03/09 01:44:19;;;;;;;13.02;6.55;;;2.70;99.90;;;;;;5072177;28;20176;-48
2022/03/09 01:46:50;;;;;;;12.05;6.38;;;2.70;99.90;;;;;;5071699;28;20739;-47
2022/03/09 01:49:16;;;;;;;8.90;6.03;;;2.70;99.90;;;;;;5071740;28;20190;-48
2022/03/09 01:51:44;;;;;;;12.48;6.63;;;2.70;99.90;;;;;;5071717;28;20701;-47
2022/03/09 01:54:10;;;;;;;10.07;6.55;;;2.70;99.90;;;;;;5072070;28;20176;-48
2022/03/09 01:56:36;;;;;;;9.30;5.97;;;2.70;99.90;;;;;;5072054;28;20215;-48
2022/03/09 01:59:04;;;;;;;9.52;5.88;;;2.70;99.90;;;;;;5071844;28;20253;-48
2022/03/09 02:01:29;;;;;;;12.10;5.97;;;2.70;99.90;;;;;;5071676;28;20166;-48
2022/03/09 02:03:56;;;;;;;9.52;6.57;;;2.70;99.90;;;;;;5071774;28;20215;-48
2022/03/09 02:06:22;;;;;;;10.02;5.97;;;2.70;99.90;;;;;;5071912;28;20216;-48
2022/03/09 02:11:33;;;;;;;8.27;5.88;;;2.80;99.90;;;;;;5071801;28;20247;-48
2022/03/09 02:13:59;;;;;;;12.07;6.00;;;2.80;99.90;;;;;;5071378;28;20256;-47
2022/03/09 02:16:24;;;;;;;10.23;6.43;;;2.80;99.90;;;;;;5071573;28;20226;-48
2022/03/09 02:18:50;;;;;;;11.05;5.97;;;2.80;99.90;;;;;;5071653;28;20183;-47
2022/03/09 02:21:18;;;;;;;14.68;6.43;;;2.80;99.90;;;;;;5071566;28;20172;-47
2022/03/09 02:23:45;;;;;;;12.18;6.45;;;2.80;99.90;;;;;;5071683;28;20227;-47
2022/03/09 02:26:11;;;;;;;11.70;7.35;;;2.80;99.90;;;;;;5071758;28;20174;-47
2022/03/09 02:28:38;;;;;;;13.20;6.85;;;2.80;99.90;;;;;;5071951;28;20295;-47
2022/03/09 02:31:04;;;;;;;10.52;6.82;;;2.80;99.90;;;;;;5071512;28;20166;-48
2022/03/09 02:33:30;;;;;;;11.95;6.32;;;2.80;99.90;;;;;;5053416;28;20234;-48
2022/03/09 02:35:55;;;;;;;10.45;6.35;;;2.80;99.90;;;;;;5071392;28;20173;-47
2022/03/09 02:38:21;;;;;;;9.73;6.28;;;2.80;99.90;;;;;;5071651;28;20170;-47
2022/03/09 02:40:47;;;;;;;13.13;5.63;;;2.80;99.90;;;;;;5071403;28;20243;-48
2022/03/09 02:43:12;;;;;;;10.98;6.07;;;2.80;99.90;;;;;;5071567;28;20249;-47
2022/03/09 02:45:38;;;;;;;11.88;6.40;;;2.80;99.90;;;;;;5071363;28;20292;-48
2022/03/09 02:48:04;;;;;;;11.77;5.82;;;2.80;99.90;;;;;;5071270;28;20241;-48
2022/03/09 02:50:29;;;;;;;11.70;5.70;;;2.80;99.90;;;;;;5074220;28;20165;-47
2022/03/09 02:52:55;;;;;;;10.63;6.43;;;2.80;99.90;;;;;;5074723;28;20210;-48
2022/03/09 02:55:20;;;;;;;7.47;5.13;;;2.80;99.90;;;;;;5074843;28;20248;-48
2022/03/09 02:57:46;;;;;;;13.15;6.43;;;2.80;99.90;;;;;;5074727;28;20170;-48
2022/03/09 03:00:12;;;;;;;11.18;5.82;;;2.80;99.90;;;;;;5075018;28;20170;-47
2022/03/09 03:02:38;;;;;;;8.35;5.80;;;2.80;99.90;;;;;;5075067;28;20165;-48
2022/03/09 03:05:05;;;;;;;12.43;5.82;;;2.80;99.90;;;;;;5074925;28;20162;-49
2022/03/09 03:07:31;;;;;;;7.68;5.40;;;2.80;99.90;;;;;;5074847;28;20575;-48
2022/03/09 03:09:57;;;;;;;10.40;6.13;;;2.70;99.90;;;;;;5074562;28;20199;-48
2022/03/09 03:12:22;;;;;;;9.98;5.78;;;2.70;99.90;;;;;;5074453;28;20209;-48
2022/03/09 03:14:48;;;;;;;9.30;5.53;;;2.70;99.90;;;;;;5074736;28;20634;-48
2022/03/09 03:17:13;;;;;;;10.10;5.83;;;2.70;99.90;;;;;;5074434;28;20162;-48
2022/03/09 03:19:39;;;;;;;9.70;5.60;;;2.60;99.90;;;;;;5074629;28;20303;-48
2022/03/09 03:22:05;;;;;;;9.90;5.50;;;2.60;99.90;;;;;;5074809;28;20197;-48
2022/03/09 03:24:30;;;;;;;8.48;5.63;;;2.50;99.90;;;;;;5074197;28;20177;-48
2022/03/09 03:26:56;;;;;;;8.75;5.68;;;2.50;99.90;;;;;;5074225;28;20178;-48
2022/03/09 03:29:21;;;;;;;7.90;4.97;;;2.50;99.90;;;;;;5074171;28;20191;-49
2022/03/09 03:31:47;;;;;;;9.63;5.68;;;2.50;99.90;;;;;;5074192;28;20212;-48
2022/03/09 03:34:12;;;;;;;8.07;5.55;;;2.40;99.90;;;;;;5074135;28;20189;-48
2022/03/09 03:36:38;;;;;;;7.95;5.20;;;2.40;99.90;;;;;;5074347;28;20291;-48
2022/03/09 03:39:03;;;;;;;9.70;5.65;;;2.40;99.90;;;;;;5074095;28;20166;-48
2022/03/09 03:41:29;;;;;;;7.88;5.25;;;2.40;99.90;;;;;;5073965;28;20166;-48
2022/03/09 03:43:55;;;;;;;8.73;5.40;;;2.40;99.90;;;;;;5073944;28;20200;-48
2022/03/09 03:46:20;;;;;;;6.60;5.07;;;2.30;99.90;;;;;;5073725;28;20214;-48
2022/03/09 03:48:46;;;;;;;8.68;5.53;;;2.30;99.90;;;;;;5074081;28;20202;-48
2022/03/09 03:51:11;;;;;;;9.80;5.53;;;2.30;99.90;;;;;;5073720;28;20202;-47
2022/03/09 03:53:37;;;;;;;8.10;4.93;;;2.40;99.90;;;;;;5074090;28;20178;-48
2022/03/09 03:56:03;;;;;;;13.48;5.65;;;2.40;99.90;;;;;;5056032;28;20162;-48
2022/03/09 03:58:28;;;;;;;6.43;4.47;;;2.30;99.90;;;;;;5073580;28;20158;-48
2022/03/09 04:00:54;;;;;;;9.25;5.25;;;2.40;99.90;;;;;;5073112;28;20623;-48
2022/03/09 04:03:19;;;;;;;6.72;4.78;;;2.40;99.90;;;;;;5073608;28;20170;-47
2022/03/09 04:05:45;;;;;;;12.40;6.00;;;2.40;99.90;;;;;;5073756;28;20173;-48
2022/03/09 04:08:10;;;;;;;11.85;5.18;;;2.40;99.90;;;;;;5073494;28;20167;-47
2022/03/09 04:10:36;;;;;;;11.00;5.32;;;2.50;99.90;;;;;;5055752;28;20260;-48
2022/03/09 04:13:03;;;;;;;11.77;5.70;;;2.50;99.90;;;;;;5073238;28;20212;-48
2022/03/09 04:15:31;;;;;;;9.82;6.18;;;2.50;99.90;;;;;;5073213;28;20177;-48
2022/03/09 04:17:57;;;;;;;11.18;5.93;;;2.50;99.90;;;;;;5073361;28;20173;-48
2022/03/09 04:20:22;;;;;;;11.27;6.57;;;2.50;99.90;;;;;;5073190;28;20623;-48
2022/03/09 04:22:48;;;;;;;12.40;7.25;;;2.60;99.90;;;;;;5073227;28;20627;-48
2022/03/09 04:25:13;;;;;;;10.35;6.32;;;2.50;99.90;;;;;;5072873;28;20664;-47
2022/03/09 04:27:39;;;;;;;12.70;6.85;;;2.40;99.90;;;;;;5073490;28;20174;-47
2022/03/09 04:30:05;;;;;;;12.52;6.13;;;2.40;99.90;;;;;;5073530;28;20518;-48
2022/03/09 04:32:32;;;;;;;9.73;5.88;;;2.40;99.90;;;;;;5072905;28;20247;-48
2022/03/09 04:34:58;;;;;;;10.40;5.38;;;2.50;99.90;;;;;;5073177;28;20162;-48
2022/03/09 04:37:23;;;;;;;14.13;6.85;;;2.50;99.90;;;;;;5072910;28;20507;-48
2022/03/09 04:39:49;;;;;;;14.98;7.35;;;2.50;99.90;;;;;;5073051;28;20630;-47
2022/03/09 04:42:15;;;;;;;10.73;6.00;;;2.50;99.90;;;;;;5072870;28;20239;-48
2022/03/09 04:44:41;;;;;;;16.65;6.97;;;2.40;99.90;;;;;;5072651;28;20159;-47
2022/03/09 04:47:07;;;;;;;9.05;6.15;;;2.30;99.90;;;;;;5072757;28;20262;-48
2022/03/09 04:49:32;;;;;;;9.32;5.90;;;2.40;99.90;;;;;;5072718;28;20184;-48
2022/03/09 04:51:58;;;;;;;9.25;5.55;;;2.40;99.90;;;;;;5072594;28;20213;-48
2022/03/09 04:54:23;;;;;;;8.30;5.53;;;2.40;99.90;;;;;;5072775;28;20174;-47
2022/03/09 04:56:49;;;;;;;7.35;5.28;;;2.50;99.90;;;;;;5072269;28;20722;-47
2022/03/09 04:59:17;;;;;;;8.90;6.03;;;2.40;99.90;;;;;;5072306;28;20229;-47
2022/03/09 05:01:42;;;;;;;9.80;5.97;;;2.30;99.90;;;;;;5054924;28;20212;-47
2022/03/09 05:04:08;;;;;;;15.60;6.43;;;2.30;99.90;;;;;;5072695;28;20170;-48
2022/03/09 05:06:33;;;;;;;9.55;6.05;;;2.30;99.90;;;;;;5071973;28;20174;-47
2022/03/09 05:08:59;;;;;;;8.25;5.53;;;2.30;99.90;;;;;;5072029;28;20231;-48
2022/03/09 05:11:24;;;;;;;9.43;5.55;;;2.20;99.90;;;;;;5071564;28;20713;-48
2022/03/09 05:13:50;;;;;;;10.80;6.85;;;2.20;99.90;;;;;;5071785;28;20178;-48
2022/03/09 05:16:15;;;;;;;11.30;6.35;;;2.20;99.90;;;;;;5072434;28;20174;-47
2022/03/09 05:18:41;;;;;;;17.88;8.32;;;2.20;99.90;;;;;;5072241;28;20221;-48
2022/03/09 05:21:08;;;;;;;12.02;5.50;;;2.20;99.90;;;;;;5072435;28;20715;-48
2022/03/09 05:23:34;;;;;;;9.43;5.63;;;2.20;99.90;;;;;;5072017;28;20174;-48
2022/03/09 05:25:59;;;;;;;19.05;8.25;;;2.20;99.90;;;;;;5072205;28;20176;-47
2022/03/09 05:28:25;;;;;;;10.95;6.50;;;2.10;99.90;;;;;;5072159;28;20174;-48
2022/03/09 05:30:50;;;;;;;14.82;8.15;;;2.10;99.90;;;;;;5071973;28;20587;-48
2022/03/09 05:33:16;;;;;;;25.15;9.95;;;2.10;99.90;;;;;;5072318;28;20304;-47
2022/03/09 05:35:41;;;;;;;14.50;7.20;;;2.10;99.90;;;;;;5071909;28;20173;-47
2022/03/09 05:38:07;;;;;;;14.57;7.32;;;2.00;99.90;;;;;;5072291;28;20654;-47
2022/03/09 05:40:32;;;;;;;14.57;7.13;;;2.00;99.90;;;;;;5071941;28;20173;-48
2022/03/09 05:42:58;;;;;;;10.40;6.00;;;2.00;99.90;;;;;;5071918;28;20174;-48
2022/03/09 05:45:24;;;;;;;11.70;6.57;;;2.00;99.90;;;;;;5071601;28;20214;-48
2022/03/09 05:47:49;;;;;;;12.52;6.13;;;1.90;99.90;;;;;;5071870;28;20256;-47
2022/03/09 05:50:15;;;;;;;14.07;7.00;;;1.90;99.90;;;;;;5071708;28;20564;-48
2022/03/09 05:52:41;;;;;;;11.80;6.40;;;1.90;99.90;;;;;;5071659;28;20596;-47
2022/03/09 05:55:06;;;;;;;12.48;6.88;;;1.80;99.90;;;;;;5072062;28;20166;-48
2022/03/09 05:57:32;;;;;;;21.27;9.68;;;1.80;99.90;;;;;;5071793;28;20177;-48
2022/03/09 05:59:59;;;;;;;18.65;8.45;;;1.80;99.90;;;;;;5071594;28;20223;-48
2022/03/09 06:02:24;;;;;;;14.95;7.55;;;1.80;99.90;;;;;;5071921;28;20177;-48
2022/03/09 06:04:50;;;;;;;10.05;6.22;;;1.80;99.90;;;;;;5053721;28;20173;-47
2022/03/09 06:07:15;;;;;;;14.48;6.10;;;1.80;99.90;;;;;;5071548;28;20179;-48
2022/03/09 06:09:41;;;;;;;13.90;6.50;;;1.80;99.90;;;;;;5071581;28;20177;-47
2022/03/09 06:12:08;;;;;;;18.02;7.65;;;1.80;99.90;;;;;;5071673;28;20210;-48
2022/03/09 06:14:33;;;;;;;19.38;7.97;;;1.80;99.90;;;;;;5071434;28;20170;-48
2022/03/09 06:16:59;;;;;;;15.88;7.15;;;1.80;99.90;;;;;;5071179;28;20166;-48
2022/03/09 06:19:24;;;;;;;14.88;7.18;;;1.90;99.90;;;;;;5053565;28;20170;-48
2022/03/09 06:21:50;;;;;;;9.93;5.35;;;1.90;99.90;;;;;;5071342;28;20619;-48
2022/03/09 06:24:18;;;;;;;17.30;7.60;;;1.90;99.90;;;;;;5074544;28;20522;-48
2022/03/09 06:26:44;;;;;;;18.50;7.35;;;1.90;99.90;;;;;;5075618;28;20174;-48
2022/03/09 06:29:10;;;;;;;14.48;5.63;;;1.90;99.90;;;;;;5075384;28;20201;-48
2022/03/09 06:31:36;;;;;;;13.32;6.60;;;1.80;99.90;;;;;;5075384;28;20233;-48
2022/03/09 06:34:01;;;;;;;10.25;6.38;;;1.80;99.90;;;;;;5075069;28;20166;-48
2022/03/09 06:36:27;;;;;;;16.48;7.70;;;1.80;99.90;;;;;;5056958;28;20219;-48
2022/03/09 06:38:52;;;;;;;11.80;6.85;;;1.80;99.90;;;;;;5075216;28;20197;-48
2022/03/09 06:41:18;;;;;;;21.88;10.93;;;1.80;99.90;;;;;;5075115;28;20162;-48
2022/03/09 06:43:44;;;;;;;15.65;6.55;;;1.90;99.90;;;;;;5075309;28;20170;-48
2022/03/09 06:46:10;;;;;;;14.32;7.07;;;1.90;99.90;;;;;;5074794;28;20880;-47
2022/03/09 06:48:35;;;;;;;12.82;6.88;;;1.90;99.90;;;;;;5075205;28;20162;-47
2022/03/09 06:51:01;;;;;;;13.63;7.75;;;1.90;99.90;;;;;;5074668;28;20206;-48
2022/03/09 06:53:27;;;;;;;14.68;7.55;;;1.90;99.90;;;;;;5074660;28;20173;-48
2022/03/09 06:55:52;;;;;;;18.20;7.03;;;2.00;99.90;;;;;;5074795;28;20178;-48
2022/03/09 06:58:18;;;;;;;16.15;7.57;;;2.10;99.90;;;;;;5074748;28;20182;-48
2022/03/09 07:00:43;;;;;;;14.50;6.97;;;2.10;99.90;;;;;;5074669;28;20170;-48
2022/03/09 07:03:09;;;;;;;9.40;5.75;;;2.10;99.90;;;;;;5074977;28;20174;-48
2022/03/09 07:05:35;;;;;;;16.33;8.45;;;2.10;99.90;;;;;;5074964;28;20162;-48
2022/03/09 07:08:01;;;;;;;10.88;6.47;;;2.20;99.90;;;;;;5074483;28;20524;-48
2022/03/09 07:10:27;;;;;;;13.93;6.97;;;2.20;99.90;;;;;;5074544;28;20174;-48
2022/03/09 07:12:53;;;;;;;21.58;9.68;;;2.20;99.90;;;;;;5074226;28;20213;-48
2022/03/09 07:15:19;;;;;;;12.52;6.15;;;2.30;99.90;;;;;;5074294;28;20170;-48
2022/03/09 07:17:47;;;;;;;14.60;7.38;;;2.40;99.90;;;;;;5074350;28;20607;-48
2022/03/09 07:20:13;;;;;;;13.73;6.88;;;2.50;99.90;;;;;;5074157;28;20170;-48
2022/03/09 07:22:39;;;;;;;18.30;7.80;;;2.60;99.90;;;;;;5074775;28;20246;-48
2022/03/09 07:25:05;;;;;;;12.25;6.30;;;2.80;99.90;;;;;;5074730;28;20158;-48
2022/03/09 07:27:31;;;;;;;9.77;5.72;;;2.90;99.90;;;;;;5074324;28;20170;-48
2022/03/09 07:29:56;;;;;;;11.98;6.07;;;3.00;99.90;;;;;;5074282;28;20270;-48
2022/03/09 07:32:22;;;;;;;12.60;6.88;;;3.20;99.90;;;;;;5074078;28;20212;-48
2022/03/09 07:34:47;;;;;;;13.15;6.05;;;3.30;99.90;;;;;;5073298;28;20227;-48
2022/03/09 07:37:13;;;;;;;13.65;5.68;;;3.40;99.90;;;;;;5074108;28;20624;-48
2022/03/09 07:39:40;;;;;;;10.15;5.53;;;3.50;99.90;;;;;;5074203;28;20174;-48
2022/03/09 07:42:06;;;;;;;18.23;8.55;;;3.60;99.90;;;;;;5074534;28;20261;-48
2022/03/09 07:44:31;;;;;;;11.73;6.40;;;3.60;99.90;;;;;;5073882;28;20584;-48
2022/03/09 07:46:57;;;;;;;11.57;6.18;;;3.80;99.90;;;;;;5054114;28;20229;-49
2022/03/09 07:49:22;;;;;;;25.08;9.48;;;3.80;99.90;;;;;;5062719;28;20173;-48
2022/03/09 07:51:49;;;;;;;12.00;5.90;;;5.00;99.90;;;;;;5073482;28;20599;-48
2022/03/09 07:54:16;;;;;;;14.70;7.72;;;4.00;99.90;;;;;;5073507;28;20167;-48
2022/03/09 07:56:42;;;;;;;19.48;8.50;;;4.10;99.90;;;;;;5073609;28;20509;-48
2022/03/09 07:59:10;;;;;;;19.17;7.93;;;4.20;99.90;;;;;;5073743;28;20174;-48
2022/03/09 08:01:41;;;;;;;24.33;8.25;;;4.30;99.90;;;;;;5074015;28;20185;-48
2022/03/09 08:04:07;;;;;;;33.38;14.73;;;4.40;99.90;;;;;;5073698;28;20158;-48
2022/03/09 08:06:34;;;;;;;10.48;5.90;;;4.30;99.90;;;;;;5073303;28;20169;-48
2022/03/09 08:08:59;;;;;;;20.58;9.15;;;4.50;99.90;;;;;;5073353;28;20627;-48
2022/03/09 08:11:25;;;;;;;32.97;12.45;;;4.60;99.90;;;;;;5073454;28;20208;-48
2022/03/09 08:13:50;;;;;;;11.05;6.03;;;4.60;99.90;;;;;;5073330;28;20174;-48
2022/03/09 08:16:16;;;;;;;13.73;6.38;;;4.70;99.90;;;;;;5073169;28;20185;-48
2022/03/09 08:18:41;;;;;;;13.13;6.78;;;4.90;99.90;;;;;;5073129;28;20174;-53
2022/03/09 08:21:07;;;;;;;19.48;7.60;;;4.80;99.90;;;;;;5073310;28;20627;-48
2022/03/09 08:23:33;;;;;;;15.90;6.38;;;4.90;99.90;;;;;;5073306;28;20257;-48
2022/03/09 08:25:58;;;;;;;9.60;6.03;;;4.90;99.90;;;;;;5072879;28;20245;-48
2022/03/09 08:28:24;;;;;;;35.28;20.30;;;5.00;99.90;;;;;;5072931;28;20173;-48
2022/03/09 08:30:50;;;;;;;10.32;6.72;;;5.10;99.90;;;;;;5072808;28;20162;-48
2022/03/09 08:33:15;;;;;;;10.90;7.00;;;5.30;99.90;;;;;;5072677;28;20663;-48
2022/03/09 08:35:41;;;;;;;13.20;6.38;;;5.40;99.90;;;;;;5072738;28;20246;-48
2022/03/09 08:38:07;;;;;;;10.13;7.03;;;5.50;99.90;;;;;;5073255;28;20178;-48
2022/03/09 08:40:32;;;;;;;9.57;5.90;;;5.60;99.90;;;;;;5072644;28;20177;-48
2022/03/09 08:42:58;;;;;;;9.02;6.18;;;5.70;99.90;;;;;;5054651;28;20678;-48
2022/03/09 08:45:24;;;;;;;11.48;6.22;;;5.90;99.90;;;;;;5054526;28;20267;-48
2022/03/09 08:47:49;;;;;;;11.52;7.25;;;6.00;99.90;;;;;;5072300;28;20235;-48
2022/03/09 08:50:15;;;;;;;11.73;6.88;;;6.10;99.90;;;;;;5072037;28;20177;-48
2022/03/09 08:52:41;;;;;;;11.30;7.18;;;6.20;99.90;;;;;;5072389;28;20206;-48
2022/03/09 08:55:07;;;;;;;9.52;6.60;;;6.20;99.90;;;;;;5072609;28;20625;-48
2022/03/09 08:57:32;;;;;;;10.90;6.93;;;6.30;99.90;;;;;;5072517;28;20257;-48
2022/03/09 09:00:01;;;;;;;17.75;6.65;;;6.40;99.90;;;;;;5072463;28;20174;-47
2022/03/09 09:02:27;;;;;;;13.95;8.13;;;6.60;99.90;;;;;;5072314;28;20561;-48
2022/03/09 09:04:52;;;;;;;12.38;8.15;;;6.80;99.90;;;;;;5072103;28;20170;-48
2022/03/09 09:07:18;;;;;;;19.15;10.43;;;6.90;99.90;;;;;;5072136;28;20170;-47
2022/03/09 09:09:43;;;;;;;12.77;9.25;;;7.00;99.80;;;;;;5071933;28;20174;-48
2022/03/09 09:12:10;;;;;;;11.07;7.57;;;7.10;99.70;;;;;;5072214;28;20350;-47
2022/03/09 09:14:36;;;;;;;8.98;6.90;;;7.20;99.10;;;;;;5072369;28;20245;-47
2022/03/09 09:17:02;;;;;;;9.73;6.90;;;7.30;99.70;;;;;;5071854;28;20209;-47
2022/03/09 09:19:28;;;;;;;17.00;8.10;;;7.40;98.30;;;;;;5071835;28;20162;-47
2022/03/09 09:21:54;;;;;;;12.35;6.93;;;7.60;97.40;;;;;;5072045;28;20178;-48
2022/03/09 09:24:20;;;;;;;18.23;7.95;;;7.60;96.70;;;;;;5071522;28;20258;-48
2022/03/09 09:26:46;;;;;;;16.48;8.20;;;7.70;96.00;;;;;;5071808;28;20181;-48
2022/03/09 09:29:11;;;;;;;11.15;7.18;;;7.70;96.30;;;;;;5071943;28;20173;-47
2022/03/09 09:31:37;;;;;;;15.25;7.53;;;7.80;95.20;;;;;;5072123;28;20197;-48
2022/03/09 09:34:02;;;;;;;12.57;7.18;;;8.00;94.40;;;;;;5071549;28;20647;-48
2022/03/09 09:36:28;;;;;;;10.88;7.50;;;8.00;94.30;;;;;;5071672;28;20170;-48
2022/03/09 09:38:54;;;;;;;11.80;7.50;;;8.20;94.10;;;;;;5071529;28;20517;-47
2022/03/09 09:41:24;;;;;;;14.90;7.53;;;8.30;93.70;;;;;;5071681;28;20162;-47
2022/03/09 09:43:50;;;;;;;10.02;7.03;;;8.40;93.20;;;;;;5071612;28;20564;-47
2022/03/09 09:46:16;;;;;;;10.88;6.60;;;8.50;93.20;;;;;;5071522;28;20214;-47
2022/03/09 09:48:45;;;;;;;12.48;7.55;;;8.70;92.80;;;;;;5071505;28;20241;-48
2022/03/09 09:51:12;;;;;;;17.95;8.63;;;8.80;92.50;;;;;;5071440;28;20158;-47
2022/03/09 09:53:45;;;;;;;13.40;8.15;;;8.70;91.70;;;;;;5071772;28;20174;-48
2022/03/09 09:56:13;;;;;;;23.67;9.00;;;8.90;92.10;;;;;;5071545;28;20600;-48
2022/03/09 09:58:41;;;;;;;19.05;10.85;;;9.00;91.80;;;;;;5057741;28;20170;-48
2022/03/09 10:01:07;;;;;;;10.13;7.75;;;9.10;92.40;;;;;;5078768;28;20188;-48
2022/03/09 10:03:33;;;;;;;15.20;9.95;;;9.30;91.70;;;;;;5078127;28;20169;-48
2022/03/09 10:05:58;;;;;;;14.15;7.85;;;9.30;90.80;;;;;;5078027;28;20173;-48
2022/03/09 10:08:24;;;;;;;10.88;8.05;;;9.40;90.50;;;;;;5078048;28;20264;-49
2022/03/09 10:10:58;;;;;;;13.90;8.65;;;9.50;90.30;;;;;;5078068;28;20170;-48
2022/03/09 10:13:28;;;;;;;12.63;7.80;;;9.60;90.20;;;;;;5078227;28;20247;-48
2022/03/09 10:16:20;;;;;;;16.17;12.30;;;9.60;90.00;;;;;;5078494;28;20211;-48
2022/03/09 10:18:50;;;;;;;14.40;9.73;;;9.60;88.40;;;;;;5077998;28;20169;-48
2022/03/09 10:21:19;;;;;;;17.10;7.93;;;9.70;88.60;;;;;;5077848;28;20618;-48
2022/03/09 10:24:05;;;;;;;20.67;8.80;;;9.80;87.20;;;;;;5078100;28;20232;-48
2022/03/09 10:26:51;;;;;;;13.70;7.63;;;10.00;86.10;;;;;;5078109;28;20174;-48
2022/03/09 10:29:18;;;;;;;25.08;11.55;;;10.00;85.10;;;;;;5059311;28;20269;-48
2022/03/09 10:31:45;;;;;;;18.30;11.13;;;10.00;84.00;;;;;;5059470;28;20201;-48
2022/03/09 10:34:12;;;;;;;110.55;47.08;;;10.20;85.00;;;;;;5077539;28;20575;-48
2022/03/09 10:36:52;;;;;;;17.85;10.05;;;10.20;84.90;;;;;;5077642;28;20601;-48
2022/03/09 10:39:18;;;;;;;13.32;8.40;;;10.30;82.20;;;;;;5077910;28;20238;-47
2022/03/09 10:41:43;;;;;;;20.70;9.02;;;10.40;81.90;;;;;;5059413;28;20655;-48
2022/03/09 10:44:11;;;;;;;13.60;9.68;;;10.60;82.80;;;;;;5077881;28;20158;-48
2022/03/09 10:46:48;;;;;;;14.57;9.27;;;10.50;81.40;;;;;;5077479;28;20221;-47
2022/03/09 10:49:18;;;;;;;12.57;8.85;;;10.70;82.00;;;;;;5077675;28;20158;-48
2022/03/09 10:51:51;;;;;;;13.50;8.20;;;10.80;82.70;;;;;;5077803;28;20206;-48
2022/03/09 10:54:27;;;;;;;13.68;9.27;;;10.80;81.00;;;;;;5077154;28;20667;-48
2022/03/09 10:57:07;;;;;;;14.63;9.15;;;10.80;79.40;;;;;;5077812;28;20212;-48
2022/03/09 10:59:47;;;;;;;15.38;9.02;;;10.90;80.70;;;;;;5077523;28;20635;-48
2022/03/09 11:02:16;;;;;;;23.58;9.50;;;11.00;79.50;;;;;;5077827;28;20201;-48
2022/03/09 11:04:41;;;;;;;16.40;9.50;;;11.10;78.30;;;;;;5077664;28;20196;-48
2022/03/09 11:07:09;;;;;;;13.80;9.45;;;11.20;78.40;;;;;;5077591;28;20259;-48
2022/03/09 11:09:36;;;;;;;15.20;8.80;;;11.20;76.90;;;;;;5075010;28;20657;-48
2022/03/09 11:12:02;;;;;;;14.45;8.80;;;11.30;78.00;;;;;;5074417;28;20214;-48
2022/03/09 11:14:29;;;;;;;22.05;10.60;;;11.50;79.10;;;;;;5074132;28;20166;-48
2022/03/09 11:16:57;;;;;;;14.32;8.65;;;11.40;77.60;;;;;;5074391;28;20174;-48
2022/03/09 11:19:24;;;;;;;11.95;8.77;;;11.50;77.80;;;;;;5074198;28;20173;-48
2022/03/09 11:21:49;;;;;;;21.27;10.10;;;11.60;77.30;;;;;;5073701;28;20182;-48
2022/03/09 11:24:17;;;;;;;22.17;9.75;;;11.70;77.10;;;;;;5073902;28;20174;-47
2022/03/09 11:26:53;;;;;;;14.77;8.50;;;11.70;76.40;;;;;;5074267;28;20233;-47
2022/03/09 11:29:31;;;;;;;13.60;8.70;;;11.70;76.20;;;;;;5073704;28;20604;-48
2022/03/09 11:31:57;;;;;;;13.65;9.07;;;11.80;75.90;;;;;;5074026;28;20646;-48
2022/03/09 11:34:41;;;;;;;17.63;9.70;;;11.70;74.10;;;;;;5073993;28;20197;-47
2022/03/09 11:37:10;;;;;;;15.60;9.27;;;11.90;75.10;;;;;;5074325;28;20191;-48
2022/03/09 11:39:38;;;;;;;14.20;10.10;;;12.10;74.10;;;;;;5074129;28;20635;-48
2022/03/09 11:42:19;;;;;;;12.40;9.18;;;12.10;73.40;;;;;;5073820;28;20177;-48
2022/03/09 11:44:49;;;;;;;14.95;9.40;;;12.10;72.20;;;;;;5073774;28;20169;-48
2022/03/09 11:47:15;;;;;;;14.93;9.73;;;12.30;73.00;;;;;;5073194;28;20302;-48
2022/03/09 11:49:49;;;;;;;11.43;8.82;;;12.40;73.30;;;;;;5073460;28;20184;-47
2022/03/09 11:52:15;;;;;;;13.32;9.20;;;12.30;73.00;;;;;;5073656;28;20210;-52
2022/03/09 11:54:55;;;;;;;14.82;10.50;;;12.50;73.40;;;;;;5073491;28;20190;-48
2022/03/09 11:57:23;;;;;;;14.07;10.18;;;12.40;71.40;;;;;;5071321;28;20177;-48
2022/03/09 12:00:06;;;;;;;20.00;9.77;;;12.40;72.00;;;;;;5073744;28;20532;-48
2022/03/09 12:02:40;;;;;;;14.38;10.23;;;12.50;72.50;;;;;;5073168;28;20223;-47
2022/03/09 12:05:07;;;;;;;13.70;9.98;;;12.60;72.50;;;;;;5073488;28;20177;-47
2022/03/09 12:07:34;;;;;;;13.48;10.23;;;12.60;72.10;;;;;;5072883;28;20662;-48
2022/03/09 12:10:00;;;;;;;14.07;9.23;;;12.90;72.40;;;;;;5073200;28;20158;-48
2022/03/09 12:12:27;;;;;;;19.42;10.27;;;12.80;71.80;;;;;;5073059;28;20604;-48
2022/03/09 12:15:00;;;;;;;14.38;10.88;;;12.80;72.20;;;;;;5055485;28;20281;-48
2022/03/09 12:17:37;;;;;;;16.10;11.43;;;12.90;71.90;;;;;;5073324;28;20174;-48
2022/03/09 12:20:28;;;;;;;18.63;10.23;;;12.90;70.00;;;;;;5073352;28;20177;-48
2022/03/09 12:22:56;;;;;;;14.48;9.95;;;12.90;71.30;;;;;;5072874;28;20174;-48
2022/03/09 12:25:42;;;;;;;15.90;9.68;;;12.80;70.70;;;;;;5072802;28;20170;-48
2022/03/09 12:28:25;;;;;;;29.83;17.52;;;12.80;69.10;;;;;;5073179;28;20631;-48
2022/03/09 12:31:03;;;;;;;34.05;18.58;;;12.90;68.80;;;;;;5072613;28;20172;-48
2022/03/09 12:33:34;;;;;;;19.95;13.27;;;13.10;69.40;;;;;;5072423;28;20299;-47
2022/03/09 12:36:09;;;;;;;33.80;16.45;;;13.10;68.60;;;;;;5072755;28;20166;-48
2022/03/09 12:38:36;;;;;;;29.85;18.80;;;13.30;69.10;;;;;;5072909;28;20207;-48
2022/03/09 12:41:02;;;;;;;13.48;10.30;;;13.40;68.20;;;;;;5072209;28;20300;-47
2022/03/09 12:43:48;;;;;;;17.35;10.80;;;13.30;67.40;;;;;;5072410;28;20174;-48
2022/03/09 12:46:14;;;;;;;19.10;12.95;;;13.40;68.10;;;;;;5072301;28;20634;-47
2022/03/09 12:48:40;;;;;;;15.50;11.45;;;13.40;69.00;;;;;;5072265;28;20673;-47